Armona, California
Current Conditions -  °F | °C
As of 4:53 AM on Thursday 18 Dec 2014 (Local Time) from KHJO Reporting Station
Haze Haze  
Wind Chill: 46°   Ceiling: 6000
Heat Index: 46°   Visibility: 5mi
Dew Point: 45°   Wind: 3mph
Humidity: 96%   Direction: 90°E
Pressure: 30.14"   Gusts: NA
Location:  36.32°N, 119.71°W
Report Text: KHJO 181253Z AUTO 09003KT 5SM BR OVC060 08/07 A3014 RMK AO2 SLP206 T00780072
Loading
Personal Weather Stations






























Interactive Weather Map New forecast layout! Learn more

10-Day Weather Forecast

Advertisements
Track Severe Weather on mobile